Dal'Nerechensk, Russia
Current Conditions -  °F | °C
As of 3:00 AM on Friday 28 Nov 2014 (Local Time) from UHHH Reporting Station
Clear Clear  
Wind Chill: -6°   Ceiling: Unl
Heat Index:   Visibility: 6mi
Dew Point: -4°   Wind: 11mph
Humidity: 57%   Direction: 240°WSW
Pressure: 30.3"   Gusts: NA
Location:  45.87°N, 133.73°E
Report Text: UHHH 271700Z 24005MPS CAVOK M13/M20 Q1026 NOSIG RMK QFE763/101723090060
Loading
Personal Weather Stations






























Interactive Weather Map New forecast layout! Learn more

10-Day Weather Forecast

Advertisements
Track Severe Weather on mobile